createdAt,value
2019-04-11T00:00:59.692Z,100675.54
2019-04-11T00:02:34.458Z,100673.93
2019-04-11T00:04:10.143Z,100673.73
2019-04-11T00:05:45.347Z,100674.16
2019-04-11T00:07:20.408Z,100676.31
2019-04-11T00:08:56.392Z,100678.56
2019-04-11T00:10:31.532Z,100672.48
2019-04-11T00:12:06.809Z,100670.59
2019-04-11T00:13:41.764Z,100675.47
2019-04-11T00:15:16.529Z,100672.26
2019-04-11T00:16:51.367Z,100672.20
2019-04-11T00:18:27.067Z,100675.64
2019-04-11T00:20:02.223Z,100675.89
2019-04-11T00:21:38.005Z,100676.28
2019-04-11T00:23:14.202Z,100669.67
2019-04-11T00:24:49.206Z,100672.42
2019-04-11T00:26:24.394Z,100673.62
2019-04-11T00:27:59.523Z,100679.58
2019-04-11T00:29:34.512Z,100670.32
2019-04-11T00:31:09.481Z,100666.80
2019-04-11T00:32:45.453Z,100675.06
2019-04-11T00:34:20.641Z,100673.70
2019-04-11T00:35:55.719Z,100667.10
2019-04-11T00:37:30.586Z,100676.34
2019-04-11T00:39:08.179Z,100671.24
2019-04-11T00:40:43.739Z,100676.08
2019-04-11T00:42:18.736Z,100671.19
2019-04-11T00:43:54.645Z,100674.02
2019-04-11T00:45:29.778Z,100679.17
2019-04-11T00:47:04.796Z,100677.30
2019-04-11T00:48:39.717Z,100673.95
2019-04-11T00:50:14.900Z,100684.83
2019-04-11T00:51:50.078Z,100681.97
2019-04-11T00:53:25.705Z,100681.83
2019-04-11T00:55:00.752Z,100685.56
2019-04-11T00:56:36.630Z,100685.05
2019-04-11T00:58:11.820Z,100686.30
2019-04-11T00:59:46.822Z,100684.13
2019-04-11T01:01:21.911Z,100689.20
2019-04-11T01:02:56.415Z,100689.04
2019-04-11T01:04:31.032Z,100690.05
2019-04-11T01:06:05.767Z,100690.68
2019-04-11T01:07:40.914Z,100688.74
2019-04-11T01:09:15.880Z,100687.91
2019-04-11T01:10:50.421Z,100687.77
2019-04-11T01:12:24.889Z,100689.30
2019-04-11T01:13:59.533Z,100693.36
2019-04-11T01:15:34.018Z,100689.03
2019-04-11T01:17:09.366Z,100688.55
2019-04-11T01:18:44.466Z,100686.27
2019-04-11T01:20:19.544Z,100693.28
2019-04-11T01:21:55.002Z,100694.01
2019-04-11T01:23:30.932Z,100689.40
2019-04-11T01:25:08.399Z,100693.73
2019-04-11T01:26:43.513Z,100694.12
2019-04-11T01:28:18.603Z,100697.13
2019-04-11T01:29:53.631Z,100693.95
2019-04-11T01:31:30.038Z,100692.61
2019-04-11T01:33:06.573Z,100696.70
2019-04-11T01:34:42.609Z,100690.50
2019-04-11T01:36:18.517Z,100688.28
2019-04-11T01:37:53.519Z,100688.85
2019-04-11T01:39:49.675Z,100701.45
2019-04-11T01:41:24.679Z,100705.40
2019-04-11T01:42:59.721Z,100697.06
2019-04-11T01:44:34.707Z,100698.53
2019-04-11T01:46:09.715Z,100705.55
2019-04-11T01:47:53.236Z,100704.38
2019-04-11T01:49:28.369Z,100703.89
2019-04-11T01:51:03.225Z,100700.97
2019-04-11T01:52:38.310Z,100704.00
2019-04-11T01:54:13.534Z,100698.59
2019-04-11T01:55:48.642Z,100708.63
2019-04-11T01:57:23.411Z,100707.16
2019-04-11T01:58:59.420Z,100706.42
2019-04-11T02:00:52.534Z,100715.16
2019-04-11T02:02:36.808Z,100717.52
2019-04-11T02:04:19.893Z,100709.66
2019-04-11T02:05:54.970Z,100711.08
2019-04-11T02:07:30.920Z,100710.03
2019-04-11T02:09:13.768Z,100713.92
2019-04-11T02:10:48.973Z,100711.75
2019-04-11T02:12:23.771Z,100719.39
2019-04-11T02:14:08.024Z,100714.82
2019-04-11T02:15:35.198Z,100713.67
2019-04-11T02:17:10.434Z,100712.58
2019-04-11T02:18:45.725Z,100721.52
2019-04-11T02:20:20.860Z,100707.97
2019-04-11T02:22:04.194Z,100712.20
2019-04-11T02:23:55.305Z,100716.06
2019-04-11T02:25:47.603Z,100710.70
2019-04-11T02:27:26.018Z,100716.23
2019-04-11T02:29:01.410Z,100722.00
2019-04-11T02:30:40.644Z,100722.95
2019-04-11T02:32:15.714Z,100720.72
2019-04-11T02:33:51.351Z,100715.20
2019-04-11T02:35:26.969Z,100716.41
2019-04-11T02:37:02.461Z,100717.70
2019-04-11T02:38:38.919Z,100714.43
2019-04-11T02:40:15.445Z,100717.91
2019-04-11T02:41:52.700Z,100713.62
2019-04-11T02:43:29.441Z,100717.11
2019-04-11T02:45:19.802Z,100723.25
2019-04-11T02:46:50.334Z,100729.45
2019-04-11T02:48:20.766Z,100721.96
2019-04-11T02:49:57.260Z,100723.95
2019-04-11T02:51:34.361Z,100722.63
2019-04-11T02:53:10.190Z,100728.71
2019-04-11T02:54:45.308Z,100730.53
2019-04-11T02:56:23.769Z,100729.66
2019-04-11T02:58:01.818Z,100726.45
2019-04-11T02:59:36.735Z,100730.16
2019-04-11T03:01:12.762Z,100733.35
2019-04-11T03:02:48.523Z,100728.66
2019-04-11T03:04:24.474Z,100731.81
2019-04-11T03:06:00.002Z,100740.19
2019-04-11T03:07:36.020Z,100733.80
2019-04-11T03:09:11.002Z,100732.39
2019-04-11T03:10:46.198Z,100729.84
2019-04-11T03:12:23.413Z,100730.50
2019-04-11T03:14:01.275Z,100739.02
2019-04-11T03:15:48.814Z,100739.90
2019-04-11T03:17:19.559Z,100747.16
2019-04-11T03:19:08.718Z,100748.91
2019-04-11T03:20:33.822Z,100746.75
2019-04-11T03:22:03.344Z,100747.52
2019-04-11T03:23:39.619Z,100747.59
2019-04-11T03:25:14.112Z,100757.70
2019-04-11T03:26:49.758Z,100751.73
2019-04-11T03:28:28.305Z,100758.37
2019-04-11T03:30:03.048Z,100753.56
2019-04-11T03:34:03.710Z,100763.30
2019-04-11T03:35:37.771Z,100758.74
2019-04-11T03:38:27.342Z,100757.31
2019-04-11T03:39:59.548Z,100758.30
2019-04-11T03:41:26.953Z,100764.58
2019-04-11T03:43:05.750Z,100763.36
2019-04-11T03:44:33.551Z,100764.38
2019-04-11T03:46:24.904Z,100761.83
2019-04-11T03:47:59.497Z,100764.66
2019-04-11T03:49:29.362Z,100766.97
2019-04-11T03:50:57.106Z,100768.98
2019-04-11T03:52:32.304Z,100756.64
2019-04-11T03:54:07.576Z,100759.08
2019-04-11T03:55:43.416Z,100764.32
2019-04-11T03:57:18.357Z,100759.17
2019-04-11T03:58:53.486Z,100772.30
2019-04-11T04:00:34.042Z,100763.75
2019-04-11T04:02:05.749Z,100766.14
2019-04-11T04:03:42.593Z,100768.04
2019-04-11T04:05:17.722Z,100766.02
2019-04-11T04:06:55.072Z,100762.98
2019-04-11T04:08:31.482Z,100768.95
2019-04-11T04:10:11.499Z,100766.15
2019-04-11T04:11:46.743Z,100773.34
2019-04-11T04:13:23.205Z,100773.40
2019-04-11T04:15:09.291Z,100774.18
2019-04-11T04:17:23.619Z,100782.96
2019-04-11T04:19:09.745Z,100785.54
2019-04-11T04:21:06.962Z,100786.97
2019-04-11T04:22:50.100Z,100788.97
2019-04-11T04:24:28.761Z,100789.08
2019-04-11T04:26:05.508Z,100787.48
2019-04-11T04:27:41.023Z,100791.83
2019-04-11T04:29:17.838Z,100791.28
2019-04-11T04:30:53.852Z,100795.38
2019-04-11T04:32:30.364Z,100799.45
2019-04-11T04:34:07.254Z,100800.99
2019-04-11T04:35:42.800Z,100803.92
2019-04-11T04:37:21.389Z,100807.38
2019-04-11T04:38:57.055Z,100801.91
2019-04-11T04:40:50.040Z,100807.76
2019-04-11T04:42:21.173Z,100802.58
2019-04-11T04:43:48.285Z,100811.31
2019-04-11T04:45:23.956Z,100806.52
2019-04-11T04:47:13.026Z,100811.42
2019-04-11T04:48:35.745Z,100811.11
2019-04-11T04:50:13.425Z,100812.59
2019-04-11T04:51:48.897Z,100812.10
2019-04-11T04:53:26.669Z,100815.83
2019-04-11T04:55:02.201Z,100812.22
2019-04-11T04:56:39.195Z,100804.38
2019-04-11T04:58:15.777Z,100815.69
2019-04-11T04:59:53.188Z,100803.25
2019-04-11T05:01:29.102Z,100810.84
2019-04-11T05:03:05.475Z,100809.02
2019-04-11T05:04:40.303Z,100809.45
2019-04-11T05:06:16.340Z,100809.70
2019-04-11T05:07:51.969Z,100807.76
2019-04-11T05:09:26.876Z,100805.89
2019-04-11T05:11:02.241Z,100805.22
2019-04-11T05:12:38.767Z,100811.08
2019-04-11T05:14:14.620Z,100815.15
2019-04-11T05:16:02.884Z,100805.92
2019-04-11T05:17:27.796Z,100811.17
2019-04-11T05:19:01.790Z,100814.56
2019-04-11T05:20:36.590Z,100813.50
2019-04-11T05:22:10.950Z,100819.66
2019-04-11T05:23:45.961Z,100815.01
2019-04-11T05:25:20.761Z,100813.12
2019-04-11T05:26:55.847Z,100818.72
2019-04-11T05:28:30.342Z,100809.92
2019-04-11T05:30:07.785Z,100816.73
2019-04-11T05:31:42.819Z,100808.27
2019-04-11T05:33:17.944Z,100810.66
2019-04-11T05:34:53.094Z,100811.10
2019-04-11T05:36:28.620Z,100811.83
2019-04-11T05:38:03.509Z,100812.02
2019-04-11T05:39:38.259Z,100807.27
2019-04-11T05:41:13.850Z,100810.14
2019-04-11T05:42:52.665Z,100812.84
2019-04-11T05:44:26.232Z,100827.54
2019-04-11T05:46:03.554Z,100825.52
2019-04-11T05:47:37.397Z,100832.78
2019-04-11T05:49:36.792Z,100834.22
2019-04-11T05:51:09.533Z,100833.84
2019-04-11T05:52:45.316Z,100845.47
2019-04-11T05:54:20.442Z,100837.37
2019-04-11T05:55:55.505Z,100842.20
2019-04-11T05:57:35.307Z,100840.17
2019-04-11T05:59:15.121Z,100840.83
2019-04-11T06:01:01.356Z,100844.07
2019-04-11T06:02:39.552Z,100845.08
2019-04-11T06:04:22.365Z,100839.27
2019-04-11T06:06:10.830Z,100850.02
2019-04-11T06:07:57.957Z,100848.06
2019-04-11T06:09:35.946Z,100850.55
2019-04-11T06:11:23.682Z,100828.27
2019-04-11T06:13:16.448Z,100835.00
2019-04-11T06:15:14.152Z,100828.40
2019-04-11T06:16:53.856Z,100836.23
2019-04-11T06:18:37.220Z,100837.28
2019-04-11T06:20:35.719Z,100834.84
2019-04-11T06:22:10.913Z,100834.20
2019-04-11T06:24:11.950Z,100828.06
2019-04-11T06:25:55.604Z,100833.91
2019-04-11T06:27:53.583Z,100835.72
2019-04-11T06:29:34.880Z,100848.44
2019-04-11T06:31:27.188Z,100846.09
2019-04-11T06:33:12.370Z,100848.67
2019-04-11T06:34:52.797Z,100849.20
2019-04-11T06:37:05.682Z,100833.87
2019-04-11T06:38:47.269Z,100845.05
2019-04-11T06:40:32.739Z,100853.56
2019-04-11T06:42:27.595Z,100853.66
2019-04-11T06:44:09.617Z,100850.42
2019-04-11T06:45:54.647Z,100836.91
2019-04-11T06:47:41.004Z,100844.95
2019-04-11T06:49:36.317Z,100841.27
2019-04-11T06:51:28.913Z,100847.44
2019-04-11T06:53:04.426Z,100848.70
2019-04-11T06:54:49.584Z,100851.09
2019-04-11T06:56:29.690Z,100852.63
2019-04-11T06:58:08.953Z,100845.95
2019-04-11T06:59:45.082Z,100846.17
2019-04-11T07:01:23.205Z,100851.77
2019-04-11T07:02:59.950Z,100843.82
2019-04-11T07:04:39.859Z,100849.86
2019-04-11T07:06:19.609Z,100844.92
2019-04-11T07:07:55.729Z,100852.56
2019-04-11T07:09:51.195Z,100862.21
2019-04-11T07:11:34.421Z,100865.69
2019-04-11T07:13:16.951Z,100858.20
2019-04-11T07:14:56.445Z,100855.33
2019-04-11T07:16:32.069Z,100855.27
2019-04-11T07:18:24.829Z,100853.67
2019-04-11T07:20:18.692Z,100853.75
2019-04-11T07:21:53.699Z,100869.66
2019-04-11T07:23:46.997Z,100882.22
2019-04-11T07:25:40.757Z,100865.55
2019-04-11T07:27:16.183Z,100884.30
2019-04-11T07:29:13.039Z,100873.80
2019-04-11T07:31:06.788Z,100867.37
2019-04-11T07:32:42.758Z,100869.48
2019-04-11T07:34:39.207Z,100870.62
2019-04-11T07:36:32.242Z,100875.21
2019-04-11T07:38:07.262Z,100882.08
2019-04-11T07:39:58.685Z,100877.33
2019-04-11T07:42:01.662Z,100884.55
2019-04-11T07:43:39.172Z,100884.05
2019-04-11T07:45:18.652Z,100887.53
2019-04-11T07:47:20.123Z,100879.83
2019-04-11T07:48:59.416Z,100871.86
2019-04-11T07:50:33.985Z,100872.47
2019-04-11T07:52:09.004Z,100877.73
2019-04-11T07:53:48.072Z,100883.01
2019-04-11T07:55:25.767Z,100890.75
2019-04-11T07:57:29.067Z,100882.41
2019-04-11T07:59:07.326Z,100886.06
2019-04-11T08:00:57.152Z,100871.91
2019-04-11T08:02:49.462Z,100881.44
2019-04-11T08:04:45.856Z,100886.36
2019-04-11T08:06:33.431Z,100895.75
2019-04-11T08:08:33.040Z,100886.20
2019-04-11T08:10:13.654Z,100888.22
2019-04-11T08:12:02.442Z,100885.77
2019-04-11T08:13:56.741Z,100885.81
2019-04-11T08:15:56.498Z,100873.77
2019-04-11T08:17:40.460Z,100883.83
2019-04-11T08:19:40.777Z,100876.86
2019-04-11T08:21:35.674Z,100879.12
2019-04-11T08:23:09.888Z,100887.78
2019-04-11T08:25:07.188Z,100883.38
2019-04-11T08:26:59.559Z,100904.52
2019-04-11T08:28:35.482Z,100905.02
2019-04-11T08:30:10.829Z,100907.81
2019-04-11T08:32:04.609Z,100905.80
2019-04-11T08:33:40.522Z,100910.02
2019-04-11T08:35:51.252Z,100896.10
2019-04-11T08:37:55.981Z,100900.66
2019-04-11T08:39:35.489Z,100913.93
2019-04-11T08:41:32.327Z,100917.71
2019-04-11T08:43:13.640Z,100906.25
2019-04-11T08:44:48.654Z,100917.73
2019-04-11T08:46:28.968Z,100919.44
2019-04-11T08:48:05.596Z,100911.47
2019-04-11T08:49:45.998Z,100920.14
2019-04-11T08:51:20.979Z,100912.10
2019-04-11T08:53:16.312Z,100905.12
2019-04-11T08:55:02.152Z,100915.52
2019-04-11T08:56:39.059Z,100922.17
2019-04-11T08:58:36.430Z,100915.49
2019-04-11T09:00:33.095Z,100907.48
2019-04-11T09:02:08.684Z,100916.52
2019-04-11T09:04:18.484Z,100916.34
2019-04-11T09:06:02.400Z,100911.85
2019-04-11T09:07:41.465Z,100901.89
2019-04-11T09:09:51.516Z,100896.66
2019-04-11T09:11:28.847Z,100880.52
2019-04-11T09:13:13.269Z,100874.87
2019-04-11T09:15:05.722Z,100871.22
2019-04-11T09:17:02.455Z,100883.22
2019-04-11T09:18:38.477Z,100888.20
2019-04-11T09:20:38.370Z,100880.28
2019-04-11T09:22:35.326Z,100902.73
2019-04-11T09:24:30.428Z,100911.22
2019-04-11T09:26:31.987Z,100908.27
2019-04-11T09:28:29.193Z,100904.80
2019-04-11T09:30:12.781Z,100911.24
2019-04-11T09:32:04.311Z,100909.41
2019-04-11T09:33:59.458Z,100911.03
2019-04-11T09:35:35.772Z,100911.01
2019-04-11T09:37:36.030Z,100923.34
2019-04-11T09:39:43.483Z,100907.63
2019-04-11T09:41:37.131Z,100888.81
2019-04-11T09:43:19.866Z,100893.44
2019-04-11T09:45:13.182Z,100892.52
2019-04-11T09:47:07.539Z,100907.33
2019-04-11T09:49:00.127Z,100898.67
2019-04-11T09:50:56.738Z,100910.24
2019-04-11T09:52:36.760Z,100911.52
2019-04-11T09:54:36.987Z,100905.25
2019-04-11T09:56:27.078Z,100909.19
2019-04-11T09:58:02.859Z,100916.79
2019-04-11T09:59:45.820Z,100919.44
2019-04-11T10:01:58.258Z,100927.07
2019-04-11T10:03:34.529Z,100915.37
2019-04-11T10:05:10.524Z,100917.63
2019-04-11T10:06:59.574Z,100909.70
2019-04-11T10:08:39.630Z,100922.09
2019-04-11T10:10:43.733Z,100924.03
2019-04-11T10:12:38.208Z,100924.66
2019-04-11T10:14:18.116Z,100911.72
2019-04-11T10:16:18.394Z,100898.83
2019-04-11T10:18:20.080Z,100925.30
2019-04-11T10:19:53.999Z,100911.64
2019-04-11T10:21:29.643Z,100908.97
2019-04-11T10:23:20.978Z,100916.53
2019-04-11T10:25:01.669Z,100918.09
2019-04-11T10:26:40.368Z,100903.11
2019-04-11T10:28:35.482Z,100888.84
2019-04-11T10:30:29.286Z,100890.14
2019-04-11T10:32:05.190Z,100893.04
2019-04-11T10:33:49.294Z,100903.48
2019-04-11T10:35:42.727Z,100899.33
2019-04-11T10:37:20.038Z,100887.66
2019-04-11T10:39:02.810Z,100889.00
2019-04-11T10:41:02.640Z,100899.55
2019-04-11T10:42:37.114Z,100895.69
2019-04-11T10:44:13.854Z,100883.82
2019-04-11T10:45:57.159Z,100897.10
2019-04-11T10:47:33.266Z,100901.67
2019-04-11T10:49:28.333Z,100893.37
2019-04-11T10:51:22.543Z,100909.55
2019-04-11T10:53:00.507Z,100913.61
2019-04-11T10:54:35.145Z,100905.98
2019-04-11T10:56:28.664Z,100909.79
2019-04-11T10:58:06.657Z,100899.19
2019-04-11T10:59:41.260Z,100907.69
2019-04-11T11:01:35.940Z,100906.55
2019-04-11T11:03:25.013Z,100915.74
2019-04-11T11:05:00.951Z,100909.61
2019-04-11T11:06:35.830Z,100909.42
2019-04-11T11:08:39.811Z,100918.50
2019-04-11T11:10:17.728Z,100914.19
2019-04-11T11:12:10.627Z,100905.23
2019-04-11T11:14:12.274Z,100906.83
2019-04-11T11:15:53.721Z,100912.70
2019-04-11T11:17:54.628Z,100907.36
2019-04-11T11:19:45.526Z,100920.73
2019-04-11T11:21:11.422Z,100914.41
2019-04-11T11:23:06.903Z,100921.99
2019-04-11T11:24:58.061Z,100918.91
2019-04-11T11:26:35.567Z,100919.73
2019-04-11T11:28:11.647Z,100905.84
2019-04-11T11:30:18.565Z,100906.39
2019-04-11T11:32:00.710Z,100917.46
2019-04-11T11:33:35.315Z,100914.91
2019-04-11T11:35:34.908Z,100904.66
2019-04-11T11:37:29.131Z,100910.33
2019-04-11T11:39:39.614Z,100923.06
2019-04-11T11:41:32.269Z,100931.87
2019-04-11T11:43:11.128Z,100937.67
2019-04-11T11:44:57.817Z,100941.50
2019-04-11T11:46:48.526Z,100933.09
2019-04-11T11:48:33.424Z,100922.84
2019-04-11T11:50:15.534Z,100913.96
2019-04-11T11:52:23.365Z,100908.17
2019-04-11T11:54:13.621Z,100915.22
2019-04-11T11:55:49.552Z,100932.44
2019-04-11T11:57:28.854Z,100945.58
2019-04-11T11:59:23.007Z,100946.27
2019-04-11T12:01:01.135Z,100943.42
2019-04-11T12:02:38.947Z,100944.67
2019-04-11T12:04:37.210Z,100935.46
2019-04-11T12:06:12.688Z,100944.43
2019-04-11T12:07:56.105Z,100940.58
2019-04-11T12:09:48.959Z,100931.61
2019-04-11T12:11:24.127Z,100936.10
2019-04-11T12:13:12.592Z,100937.41
2019-04-11T12:15:01.970Z,100939.52
2019-04-11T12:17:01.972Z,100950.19
2019-04-11T12:18:46.535Z,100944.19
2019-04-11T12:20:27.013Z,100940.86
2019-04-11T12:22:02.247Z,100942.06
2019-04-11T12:24:06.074Z,100939.35
2019-04-11T12:25:41.148Z,100936.39
2019-04-11T12:27:35.021Z,100928.26
2019-04-11T12:29:28.704Z,100932.69
2019-04-11T12:31:07.142Z,100930.96
2019-04-11T12:32:46.739Z,100930.94
2019-04-11T12:34:32.541Z,100926.44
2019-04-11T12:36:09.807Z,100930.95
2019-04-11T12:37:52.637Z,100936.13
2019-04-11T12:39:43.489Z,100927.00
2019-04-11T12:41:30.601Z,100934.56
2019-04-11T12:43:06.172Z,100947.48
2019-04-11T12:44:52.042Z,100946.63
2019-04-11T12:46:44.442Z,100948.40
2019-04-11T12:48:20.214Z,100953.30
2019-04-11T12:50:14.591Z,100946.84
2019-04-11T12:52:06.945Z,100951.14
2019-04-11T12:53:42.382Z,100957.53
2019-04-11T12:55:21.801Z,100958.39
2019-04-11T12:57:14.382Z,100950.06
2019-04-11T12:59:03.828Z,100945.70
2019-04-11T13:00:46.610Z,100942.38
2019-04-11T13:02:39.147Z,100945.00
2019-04-11T13:04:29.590Z,100952.47
2019-04-11T13:06:08.714Z,100949.08
2019-04-11T13:08:02.737Z,100945.78
2019-04-11T13:09:40.856Z,100944.16
2019-04-11T13:11:15.862Z,100946.09
2019-04-11T13:13:09.527Z,100957.52
2019-04-11T13:15:01.588Z,100960.25
2019-04-11T13:16:36.267Z,100954.77
2019-04-11T13:18:28.837Z,100951.31
2019-04-11T13:20:22.074Z,100951.87
2019-04-11T13:22:10.842Z,100945.93
2019-04-11T13:24:10.090Z,100952.05
2019-04-11T13:26:02.530Z,100951.21
2019-04-11T13:27:41.189Z,100948.42
2019-04-11T13:29:33.301Z,100947.66
2019-04-11T13:31:25.998Z,100951.14
2019-04-11T13:33:03.088Z,100952.60
2019-04-11T13:34:37.878Z,100958.42
2019-04-11T13:36:37.657Z,100957.80
2019-04-11T13:38:19.707Z,100956.81
2019-04-11T13:40:07.085Z,100953.77
2019-04-11T13:42:00.300Z,100957.97
2019-04-11T13:43:41.420Z,100949.55
2019-04-11T13:45:16.555Z,100955.63
2019-04-11T13:47:10.898Z,100951.08
2019-04-11T13:49:08.841Z,100953.92
2019-04-11T13:51:07.559Z,100953.16
2019-04-11T13:53:16.983Z,100958.02
2019-04-11T13:55:01.093Z,100951.55
2019-04-11T13:56:50.623Z,100956.11
2019-04-11T13:58:50.643Z,100952.36
2019-04-11T14:00:57.612Z,100959.59
2019-04-11T14:02:51.056Z,100960.58
2019-04-11T14:04:24.867Z,100963.19
2019-04-11T14:06:02.977Z,100962.50
2019-04-11T14:07:38.100Z,100953.07
2019-04-11T14:09:25.443Z,100957.38
2019-04-11T14:11:06.732Z,100951.60
2019-04-11T14:12:41.838Z,100951.67
2019-04-11T14:14:48.087Z,100955.81
2019-04-11T14:16:23.539Z,100953.82
2019-04-11T14:18:12.466Z,100955.23
2019-04-11T14:20:04.981Z,100954.48
2019-04-11T14:21:43.487Z,100954.11
2019-04-11T14:23:36.006Z,100955.64
2019-04-11T14:25:33.132Z,100965.17
2019-04-11T14:27:14.783Z,100955.64
2019-04-11T14:29:02.490Z,100954.86
2019-04-11T14:30:52.740Z,100947.67
2019-04-11T14:32:29.741Z,100949.13
2019-04-11T14:34:29.484Z,100941.22
2019-04-11T14:36:32.586Z,100934.64
2019-04-11T14:38:06.149Z,100936.27
2019-04-11T14:39:43.007Z,100931.13
2019-04-11T14:41:41.566Z,100934.16
2019-04-11T14:43:27.038Z,100936.38
2019-04-11T14:45:05.637Z,100945.92
2019-04-11T14:46:55.897Z,100938.78
2019-04-11T14:48:51.055Z,100936.91
2019-04-11T14:50:40.392Z,100934.79
2019-04-11T14:52:25.183Z,100935.80
2019-04-11T14:54:03.685Z,100934.03
2019-04-11T14:55:40.949Z,100938.05
2019-04-11T14:57:23.276Z,100937.45
2019-04-11T14:59:13.330Z,100940.23
2019-04-11T15:00:47.689Z,100943.69
2019-04-11T15:02:28.374Z,100946.14
2019-04-11T15:04:28.464Z,100946.16
2019-04-11T15:06:15.637Z,100949.86
2019-04-11T15:07:50.795Z,100954.56
2019-04-11T15:09:42.309Z,100958.64
2019-04-11T15:11:34.431Z,100958.30
2019-04-11T15:13:10.773Z,100964.61
2019-04-11T15:15:19.997Z,100958.05
2019-04-11T15:17:11.096Z,100960.17
2019-04-11T15:18:52.216Z,100961.28
2019-04-11T15:20:54.628Z,100960.09
2019-04-11T15:22:39.520Z,100959.88
2019-04-11T15:24:15.560Z,100957.23
2019-04-11T15:26:09.374Z,100955.37
2019-04-11T15:28:01.817Z,100961.76
2019-04-11T15:29:38.687Z,100959.98
2019-04-11T15:31:20.053Z,100963.94
2019-04-11T15:33:14.287Z,100958.89
2019-04-11T15:34:54.900Z,100960.33
2019-04-11T15:36:29.722Z,100961.58
2019-04-11T15:38:22.098Z,100970.55
2019-04-11T15:40:08.296Z,100967.48
2019-04-11T15:41:43.771Z,100967.48
2019-04-11T15:43:42.032Z,100966.41
2019-04-11T15:45:19.501Z,100962.76
2019-04-11T15:46:57.001Z,100971.69
2019-04-11T15:49:00.432Z,100968.70
2019-04-11T15:50:53.149Z,100971.57
2019-04-11T15:52:28.066Z,100973.97
2019-04-11T15:54:22.115Z,100975.56
2019-04-11T15:56:19.253Z,100974.55
2019-04-11T15:57:56.160Z,100977.18
2019-04-11T15:59:50.739Z,100983.10
2019-04-11T16:01:42.138Z,100980.20
2019-04-11T16:03:24.497Z,100980.78
2019-04-11T16:05:20.467Z,100986.00
2019-04-11T16:07:23.213Z,100984.11
2019-04-11T16:09:01.773Z,100987.48
2019-04-11T16:10:41.815Z,100979.97
2019-04-11T16:12:27.059Z,100977.31
2019-04-11T16:14:07.931Z,100982.06
2019-04-11T16:15:43.629Z,100981.37
2019-04-11T16:17:35.818Z,100985.12
2019-04-11T16:19:28.710Z,100970.91
2019-04-11T16:21:17.991Z,100980.00
2019-04-11T16:23:02.119Z,100974.66
2019-04-11T16:24:37.371Z,100971.48
2019-04-11T16:26:16.197Z,100969.16
2019-04-11T16:28:12.993Z,100978.08
2019-04-11T16:29:56.080Z,100978.85
2019-04-11T16:31:40.146Z,100985.91
2019-04-11T16:33:28.739Z,100991.55
2019-04-11T16:35:20.037Z,100988.34
2019-04-11T16:36:57.566Z,100992.20
2019-04-11T16:38:37.155Z,100984.11
2019-04-11T16:40:29.991Z,100990.98
2019-04-11T16:42:07.499Z,100993.30
2019-04-11T16:43:43.745Z,100996.70
2019-04-11T16:45:35.895Z,100994.29
2019-04-11T16:47:28.335Z,100987.83
2019-04-11T16:49:03.348Z,100996.23
2019-04-11T16:50:38.114Z,100999.28
2019-04-11T16:52:12.922Z,100998.66
2019-04-11T16:53:47.933Z,100995.08
2019-04-11T16:55:22.958Z,100997.42
2019-04-11T16:56:57.971Z,100992.95
2019-04-11T16:58:32.830Z,101002.20
2019-04-11T17:00:10.025Z,100999.09
2019-04-11T17:01:44.797Z,101001.84
2019-04-11T17:03:19.835Z,101000.05
2019-04-11T17:04:55.803Z,100996.72
2019-04-11T17:06:49.469Z,101000.66
2019-04-11T17:08:32.001Z,101003.34
2019-04-11T17:10:08.043Z,101000.34
2019-04-11T17:11:42.996Z,101007.26
2019-04-11T17:13:18.077Z,101001.66
2019-04-11T17:14:53.091Z,101005.16
2019-04-11T17:16:30.713Z,101009.81
2019-04-11T17:18:04.506Z,101008.38
2019-04-11T17:19:39.296Z,101013.20
2019-04-11T17:21:14.138Z,101011.09
2019-04-11T17:22:49.333Z,101005.23
2019-04-11T17:24:24.384Z,101012.02
2019-04-11T17:25:59.149Z,101019.12
2019-04-11T17:27:33.935Z,101017.66
2019-04-11T17:29:08.754Z,101010.37
2019-04-11T17:30:44.025Z,101012.39
2019-04-11T17:32:18.803Z,101015.88
2019-04-11T17:33:56.451Z,101021.95
2019-04-11T17:35:31.739Z,101022.81
2019-04-11T17:37:07.338Z,101020.12
2019-04-11T17:38:42.345Z,101024.75
2019-04-11T17:40:17.174Z,101033.27
2019-04-11T17:41:56.291Z,101028.34
2019-04-11T17:43:31.428Z,101040.61
2019-04-11T17:45:06.643Z,101040.50
2019-04-11T17:46:41.656Z,101043.95
2019-04-11T17:48:19.006Z,101046.23
2019-04-11T17:49:56.705Z,101038.31
2019-04-11T17:51:34.629Z,101047.30
2019-04-11T17:53:08.550Z,101049.06
2019-04-11T17:54:43.616Z,101049.77
2019-04-11T17:56:18.637Z,101048.61
2019-04-11T17:57:54.885Z,101060.66
2019-04-11T17:59:30.759Z,101049.26
2019-04-11T18:01:07.310Z,101056.12
2019-04-11T18:02:42.162Z,101066.02
2019-04-11T18:04:17.196Z,101056.72
2019-04-11T18:05:52.326Z,101060.08
2019-04-11T18:07:27.126Z,101064.37
2019-04-11T18:09:02.174Z,101060.80
2019-04-11T18:10:37.206Z,101071.09
2019-04-11T18:12:12.092Z,101066.16
2019-04-11T18:13:47.137Z,101068.49
2019-04-11T18:15:22.168Z,101077.85
2019-04-11T18:17:01.584Z,101073.63
2019-04-11T18:18:35.169Z,101066.70
2019-04-11T18:20:11.646Z,101079.62
2019-04-11T18:21:46.768Z,101084.48
2019-04-11T18:23:21.834Z,101084.65
2019-04-11T18:24:56.936Z,101088.78
2019-04-11T18:26:32.328Z,101090.16
2019-04-11T18:28:07.363Z,101091.09
2019-04-11T18:29:42.781Z,101090.57
2019-04-11T18:31:19.044Z,101092.98
2019-04-11T18:32:54.419Z,101096.27
2019-04-11T18:34:31.589Z,101092.74
2019-04-11T18:36:07.307Z,101099.41
2019-04-11T18:37:42.136Z,101108.03
2019-04-11T18:39:17.268Z,101100.55
2019-04-11T18:40:52.049Z,101109.62
2019-04-11T18:42:27.381Z,101106.77
2019-04-11T18:44:02.163Z,101109.25
2019-04-11T18:45:37.114Z,101103.27
2019-04-11T18:47:12.143Z,101106.72
2019-04-11T18:48:46.926Z,101100.53
2019-04-11T18:50:22.925Z,101110.40
2019-04-11T18:51:58.324Z,101104.20
2019-04-11T18:53:33.107Z,101107.94
2019-04-11T18:55:08.599Z,101112.72
2019-04-11T18:56:43.379Z,101109.85
2019-04-11T18:58:19.278Z,101113.34
2019-04-11T18:59:54.294Z,101112.35
2019-04-11T19:01:29.238Z,101110.37
2019-04-11T19:03:04.169Z,101116.14
2019-04-11T19:04:42.042Z,101109.02
2019-04-11T19:06:27.250Z,101110.53
2019-04-11T19:07:52.976Z,101113.11
2019-04-11T19:09:27.893Z,101111.70
2019-04-11T19:11:02.835Z,101121.69
2019-04-11T19:12:37.674Z,101111.22
2019-04-11T19:14:15.862Z,101112.79
2019-04-11T19:15:49.019Z,101112.01
2019-04-11T19:17:24.061Z,101116.93
2019-04-11T19:19:00.553Z,101114.98
2019-04-11T19:20:35.356Z,101114.84
2019-04-11T19:22:10.210Z,101115.97
2019-04-11T19:23:45.084Z,101114.41
2019-04-11T19:25:20.309Z,101115.33
2019-04-11T19:26:55.078Z,101116.81
2019-04-11T19:28:30.087Z,101113.72